sensor_id;sensor_type;location;lat;lon;timestamp;temperature;humidity
58582;DHT22;44361;51.476;5.700;2023-02-05T00:01:49;7.60;99.90
58582;DHT22;44361;51.476;5.700;2023-02-05T00:04:14;7.60;99.90
58582;DHT22;44361;51.476;5.700;2023-02-05T00:06:40;7.60;99.90
58582;DHT22;44361;51.476;5.700;2023-02-05T00:09:05;7.60;99.90
58582;DHT22;44361;51.476;5.700;2023-02-05T00:11:31;7.60;99.90
58582;DHT22;44361;51.476;5.700;2023-02-05T00:13:56;7.60;99.90
58582;DHT22;44361;51.476;5.700;2023-02-05T00:16:23;7.50;99.90
58582;DHT22;44361;51.476;5.700;2023-02-05T00:18:50;7.60;99.90
58582;DHT22;44361;51.476;5.700;2023-02-05T00:21:19;7.60;99.90
58582;DHT22;44361;51.476;5.700;2023-02-05T00:23:46;7.60;99.90
58582;DHT22;44361;51.476;5.700;2023-02-05T00:26:12;7.60;99.90
58582;DHT22;44361;51.476;5.700;2023-02-05T00:28:39;7.60;99.90
58582;DHT22;44361;51.476;5.700;2023-02-05T00:31:10;7.60;99.90
58582;DHT22;44361;51.476;5.700;2023-02-05T00:33:36;7.60;99.90
58582;DHT22;44361;51.476;5.700;2023-02-05T00:36:02;7.60;99.90
58582;DHT22;44361;51.476;5.700;2023-02-05T00:38:28;7.60;99.90
58582;DHT22;44361;51.476;5.700;2023-02-05T00:40:54;7.60;99.90
58582;DHT22;44361;51.476;5.700;2023-02-05T00:43:19;7.60;99.90
58582;DHT22;44361;51.476;5.700;2023-02-05T00:45:45;7.60;99.90
58582;DHT22;44361;51.476;5.700;2023-02-05T00:48:10;7.60;99.90
58582;DHT22;44361;51.476;5.700;2023-02-05T00:50:36;7.60;99.90
58582;DHT22;44361;51.476;5.700;2023-02-05T00:53:01;7.60;99.90
58582;DHT22;44361;51.476;5.700;2023-02-05T00:55:27;7.60;99.90
58582;DHT22;44361;51.476;5.700;2023-02-05T00:57:53;7.60;99.90
58582;DHT22;44361;51.476;5.700;2023-02-05T01:00:19;7.70;99.90
58582;DHT22;44361;51.476;5.700;2023-02-05T01:02:45;7.70;99.90
58582;DHT22;44361;51.476;5.700;2023-02-05T01:05:10;7.70;99.90
58582;DHT22;44361;51.476;5.700;2023-02-05T01:07:36;7.70;99.90
58582;DHT22;44361;51.476;5.700;2023-02-05T01:10:03;7.60;99.90
58582;DHT22;44361;51.476;5.700;2023-02-05T01:12:28;7.70;99.90
58582;DHT22;44361;51.476;5.700;2023-02-05T01:14:54;7.70;99.90
58582;DHT22;44361;51.476;5.700;2023-02-05T01:17:19;7.70;99.90
58582;DHT22;44361;51.476;5.700;2023-02-05T01:19:45;7.70;99.90
58582;DHT22;44361;51.476;5.700;2023-02-05T01:22:11;7.70;99.90
58582;DHT22;44361;51.476;5.700;2023-02-05T01:24:37;7.70;99.90
58582;DHT22;44361;51.476;5.700;2023-02-05T01:27:03;7.70;99.90
58582;DHT22;44361;51.476;5.700;2023-02-05T01:29:28;7.70;99.90
58582;DHT22;44361;51.476;5.700;2023-02-05T01:31:54;7.80;99.90
58582;DHT22;44361;51.476;5.700;2023-02-05T01:34:20;7.80;99.90
58582;DHT22;44361;51.476;5.700;2023-02-05T01:36:46;7.80;99.90
58582;DHT22;44361;51.476;5.700;2023-02-05T01:39:11;7.80;99.90
58582;DHT22;44361;51.476;5.700;2023-02-05T01:41:37;7.80;99.90
58582;DHT22;44361;51.476;5.700;2023-02-05T01:44:17;7.80;99.90
58582;DHT22;44361;51.476;5.700;2023-02-05T01:46:47;7.90;99.90
58582;DHT22;44361;51.476;5.700;2023-02-05T01:49:24;7.80;99.90
58582;DHT22;44361;51.476;5.700;2023-02-05T01:51:52;7.80;99.90
58582;DHT22;44361;51.476;5.700;2023-02-05T01:54:21;7.90;99.90
58582;DHT22;44361;51.476;5.700;2023-02-05T01:56:52;7.90;99.90
58582;DHT22;44361;51.476;5.700;2023-02-05T01:59:22;7.90;99.90
58582;DHT22;44361;51.476;5.700;2023-02-05T02:01:49;7.90;99.90
58582;DHT22;44361;51.476;5.700;2023-02-05T02:04:24;7.90;99.90
58582;DHT22;44361;51.476;5.700;2023-02-05T02:06:54;7.90;99.90
58582;DHT22;44361;51.476;5.700;2023-02-05T02:09:20;7.90;99.90
58582;DHT22;44361;51.476;5.700;2023-02-05T02:11:46;7.80;99.90
58582;DHT22;44361;51.476;5.700;2023-02-05T02:14:12;7.80;99.90
58582;DHT22;44361;51.476;5.700;2023-02-05T02:16:39;7.80;99.90
58582;DHT22;44361;51.476;5.700;2023-02-05T02:19:11;7.80;99.90
58582;DHT22;44361;51.476;5.700;2023-02-05T02:22:21;7.80;99.90
58582;DHT22;44361;51.476;5.700;2023-02-05T02:25:28;7.90;99.90
58582;DHT22;44361;51.476;5.700;2023-02-05T02:30:38;7.80;99.90
58582;DHT22;44361;51.476;5.700;2023-02-05T02:33:11;7.80;99.90
58582;DHT22;44361;51.476;5.700;2023-02-05T02:38:29;7.80;99.90
58582;DHT22;44361;51.476;5.700;2023-02-05T02:41:08;7.80;99.90
58582;DHT22;44361;51.476;5.700;2023-02-05T02:46:37;7.80;99.90
58582;DHT22;44361;51.476;5.700;2023-02-05T02:49:07;7.80;99.90
58582;DHT22;44361;51.476;5.700;2023-02-05T02:51:36;7.70;99.90
58582;DHT22;44361;51.476;5.700;2023-02-05T02:54:08;7.70;99.90
58582;DHT22;44361;51.476;5.700;2023-02-05T02:56:36;7.70;99.90
58582;DHT22;44361;51.476;5.700;2023-02-05T02:59:09;7.70;99.90
58582;DHT22;44361;51.476;5.700;2023-02-05T03:01:39;7.70;99.90
58582;DHT22;44361;51.476;5.700;2023-02-05T03:04:13;7.70;99.90
58582;DHT22;44361;51.476;5.700;2023-02-05T03:06:42;7.70;99.90
58582;DHT22;44361;51.476;5.700;2023-02-05T03:09:26;7.70;99.90
58582;DHT22;44361;51.476;5.700;2023-02-05T03:11:54;7.70;99.90
58582;DHT22;44361;51.476;5.700;2023-02-05T03:14:20;7.70;99.90
58582;DHT22;44361;51.476;5.700;2023-02-05T03:16:45;7.70;99.90
58582;DHT22;44361;51.476;5.700;2023-02-05T03:19:11;7.70;99.90
58582;DHT22;44361;51.476;5.700;2023-02-05T03:21:42;7.70;99.90
58582;DHT22;44361;51.476;5.700;2023-02-05T03:24:10;7.70;99.90
58582;DHT22;44361;51.476;5.700;2023-02-05T03:26:35;7.70;99.90
58582;DHT22;44361;51.476;5.700;2023-02-05T03:29:05;7.70;99.90
58582;DHT22;44361;51.476;5.700;2023-02-05T03:31:44;7.60;99.90
58582;DHT22;44361;51.476;5.700;2023-02-05T03:39:54;7.60;99.90
58582;DHT22;44361;51.476;5.700;2023-02-05T03:45:27;7.50;99.90
58582;DHT22;44361;51.476;5.700;2023-02-05T03:50:54;7.50;99.90
58582;DHT22;44361;51.476;5.700;2023-02-05T03:56:24;7.50;99.90
58582;DHT22;44361;51.476;5.700;2023-02-05T03:58:53;7.50;99.90
58582;DHT22;44361;51.476;5.700;2023-02-05T04:01:19;7.50;99.90
58582;DHT22;44361;51.476;5.700;2023-02-05T04:03:45;7.50;99.90
58582;DHT22;44361;51.476;5.700;2023-02-05T04:06:11;7.50;99.90
58582;DHT22;44361;51.476;5.700;2023-02-05T04:08:36;7.50;99.90
58582;DHT22;44361;51.476;5.700;2023-02-05T04:11:02;7.50;99.90
58582;DHT22;44361;51.476;5.700;2023-02-05T04:13:28;7.50;99.90
58582;DHT22;44361;51.476;5.700;2023-02-05T04:15:53;7.40;99.90
58582;DHT22;44361;51.476;5.700;2023-02-05T04:18:19;7.40;99.90
58582;DHT22;44361;51.476;5.700;2023-02-05T04:20:44;7.50;99.90
58582;DHT22;44361;51.476;5.700;2023-02-05T04:23:10;7.40;99.90
58582;DHT22;44361;51.476;5.700;2023-02-05T04:25:37;7.40;99.90
58582;DHT22;44361;51.476;5.700;2023-02-05T04:28:03;7.40;99.90
58582;DHT22;44361;51.476;5.700;2023-02-05T04:30:30;7.40;99.90
58582;DHT22;44361;51.476;5.700;2023-02-05T04:32:55;7.40;99.90
58582;DHT22;44361;51.476;5.700;2023-02-05T04:35:21;7.40;99.90
58582;DHT22;44361;51.476;5.700;2023-02-05T04:37:46;7.40;99.90
58582;DHT22;44361;51.476;5.700;2023-02-05T04:40:12;7.40;99.90
58582;DHT22;44361;51.476;5.700;2023-02-05T04:42:37;7.40;99.90
58582;DHT22;44361;51.476;5.700;2023-02-05T04:45:03;7.40;99.90
58582;DHT22;44361;51.476;5.700;2023-02-05T04:47:30;7.40;99.90
58582;DHT22;44361;51.476;5.700;2023-02-05T04:49:56;7.40;99.90
58582;DHT22;44361;51.476;5.700;2023-02-05T04:52:22;7.40;99.90
58582;DHT22;44361;51.476;5.700;2023-02-05T04:54:47;7.40;99.90
58582;DHT22;44361;51.476;5.700;2023-02-05T04:57:13;7.40;99.90
58582;DHT22;44361;51.476;5.700;2023-02-05T04:59:39;7.40;99.90
58582;DHT22;44361;51.476;5.700;2023-02-05T05:02:04;7.40;99.90
58582;DHT22;44361;51.476;5.700;2023-02-05T05:04:30;7.30;99.90
58582;DHT22;44361;51.476;5.700;2023-02-05T05:06:55;7.30;99.90
58582;DHT22;44361;51.476;5.700;2023-02-05T05:09:21;7.30;99.90
58582;DHT22;44361;51.476;5.700;2023-02-05T05:11:50;7.30;99.90
58582;DHT22;44361;51.476;5.700;2023-02-05T05:14:15;7.30;99.90
58582;DHT22;44361;51.476;5.700;2023-02-05T05:16:41;7.30;99.90
58582;DHT22;44361;51.476;5.700;2023-02-05T05:19:06;7.30;99.90
58582;DHT22;44361;51.476;5.700;2023-02-05T05:21:32;7.30;99.90
58582;DHT22;44361;51.476;5.700;2023-02-05T05:23:57;7.30;99.90
58582;DHT22;44361;51.476;5.700;2023-02-05T05:26:23;7.20;99.90
58582;DHT22;44361;51.476;5.700;2023-02-05T05:28:52;7.20;99.90
58582;DHT22;44361;51.476;5.700;2023-02-05T05:31:18;7.20;99.90
58582;DHT22;44361;51.476;5.700;2023-02-05T05:33:44;7.30;99.90
58582;DHT22;44361;51.476;5.700;2023-02-05T05:36:10;7.20;99.90
58582;DHT22;44361;51.476;5.700;2023-02-05T05:38:35;7.30;99.90
58582;DHT22;44361;51.476;5.700;2023-02-05T05:41:01;7.30;99.90
58582;DHT22;44361;51.476;5.700;2023-02-05T05:43:45;7.20;99.90
58582;DHT22;44361;51.476;5.700;2023-02-05T05:46:11;7.20;99.90
58582;DHT22;44361;51.476;5.700;2023-02-05T05:48:37;7.20;99.90
58582;DHT22;44361;51.476;5.700;2023-02-05T05:51:02;7.20;99.90
58582;DHT22;44361;51.476;5.700;2023-02-05T05:53:28;7.10;99.90
58582;DHT22;44361;51.476;5.700;2023-02-05T05:55:54;7.10;99.90
58582;DHT22;44361;51.476;5.700;2023-02-05T05:58:19;7.10;99.90
58582;DHT22;44361;51.476;5.700;2023-02-05T06:00:45;7.10;99.90
58582;DHT22;44361;51.476;5.700;2023-02-05T06:03:11;7.10;99.90
58582;DHT22;44361;51.476;5.700;2023-02-05T06:05:36;7.10;99.90
58582;DHT22;44361;51.476;5.700;2023-02-05T06:08:02;7.00;99.90
58582;DHT22;44361;51.476;5.700;2023-02-05T06:10:28;7.10;99.90
58582;DHT22;44361;51.476;5.700;2023-02-05T06:12:54;7.10;99.90
58582;DHT22;44361;51.476;5.700;2023-02-05T06:15:21;7.00;99.90
58582;DHT22;44361;51.476;5.700;2023-02-05T06:17:46;7.00;99.90
58582;DHT22;44361;51.476;5.700;2023-02-05T06:20:12;7.00;99.90
58582;DHT22;44361;51.476;5.700;2023-02-05T06:22:38;6.90;99.90
58582;DHT22;44361;51.476;5.700;2023-02-05T06:25:05;6.90;99.90
58582;DHT22;44361;51.476;5.700;2023-02-05T06:27:31;7.00;99.90
58582;DHT22;44361;51.476;5.700;2023-02-05T06:29:56;7.00;99.90
58582;DHT22;44361;51.476;5.700;2023-02-05T06:32:22;7.00;99.90
58582;DHT22;44361;51.476;5.700;2023-02-05T06:34:47;7.00;99.90
58582;DHT22;44361;51.476;5.700;2023-02-05T06:37:13;7.00;99.90
58582;DHT22;44361;51.476;5.700;2023-02-05T06:39:39;6.90;99.90
58582;DHT22;44361;51.476;5.700;2023-02-05T06:42:04;7.00;99.90
58582;DHT22;44361;51.476;5.700;2023-02-05T06:44:31;7.00;99.90
58582;DHT22;44361;51.476;5.700;2023-02-05T06:46:56;7.00;99.90
58582;DHT22;44361;51.476;5.700;2023-02-05T06:49:21;7.00;99.90
58582;DHT22;44361;51.476;5.700;2023-02-05T06:51:47;7.00;99.90
58582;DHT22;44361;51.476;5.700;2023-02-05T06:54:13;7.00;99.90
58582;DHT22;44361;51.476;5.700;2023-02-05T06:56:39;7.00;99.90
58582;DHT22;44361;51.476;5.700;2023-02-05T06:59:04;7.00;99.90
58582;DHT22;44361;51.476;5.700;2023-02-05T07:01:30;7.00;99.90
58582;DHT22;44361;51.476;5.700;2023-02-05T07:03:56;6.90;99.90
58582;DHT22;44361;51.476;5.700;2023-02-05T07:06:22;6.90;99.90
58582;DHT22;44361;51.476;5.700;2023-02-05T07:08:49;6.80;99.90
58582;DHT22;44361;51.476;5.700;2023-02-05T07:11:15;6.70;99.90
58582;DHT22;44361;51.476;5.700;2023-02-05T07:13:40;6.60;99.90
58582;DHT22;44361;51.476;5.700;2023-02-05T07:16:07;6.50;99.90
58582;DHT22;44361;51.476;5.700;2023-02-05T07:18:33;6.50;99.90
58582;DHT22;44361;51.476;5.700;2023-02-05T07:20:59;6.40;99.90
58582;DHT22;44361;51.476;5.700;2023-02-05T07:23:24;6.40;99.90
58582;DHT22;44361;51.476;5.700;2023-02-05T07:25:50;6.40;99.90
58582;DHT22;44361;51.476;5.700;2023-02-05T07:28:16;6.40;99.90
58582;DHT22;44361;51.476;5.700;2023-02-05T07:30:41;6.40;99.90
58582;DHT22;44361;51.476;5.700;2023-02-05T07:33:07;6.30;99.90
58582;DHT22;44361;51.476;5.700;2023-02-05T07:35:36;6.30;99.90
58582;DHT22;44361;51.476;5.700;2023-02-05T07:38:01;6.30;99.90
58582;DHT22;44361;51.476;5.700;2023-02-05T07:40:27;6.30;99.90
58582;DHT22;44361;51.476;5.700;2023-02-05T07:42:53;6.30;99.90
58582;DHT22;44361;51.476;5.700;2023-02-05T07:45:18;6.30;99.90
58582;DHT22;44361;51.476;5.700;2023-02-05T07:47:44;6.30;99.90
58582;DHT22;44361;51.476;5.700;2023-02-05T07:50:09;6.30;99.90
58582;DHT22;44361;51.476;5.700;2023-02-05T07:52:35;6.30;99.90
58582;DHT22;44361;51.476;5.700;2023-02-05T07:55:00;6.30;99.90
58582;DHT22;44361;51.476;5.700;2023-02-05T07:57:26;6.30;99.90
58582;DHT22;44361;51.476;5.700;2023-02-05T07:59:52;6.30;99.90
58582;DHT22;44361;51.476;5.700;2023-02-05T08:02:17;6.40;99.90
58582;DHT22;44361;51.476;5.700;2023-02-05T08:04:43;6.40;99.90
58582;DHT22;44361;51.476;5.700;2023-02-05T08:07:12;6.40;99.90
58582;DHT22;44361;51.476;5.700;2023-02-05T08:09:38;6.40;99.90
58582;DHT22;44361;51.476;5.700;2023-02-05T08:12:04;6.40;99.90
58582;DHT22;44361;51.476;5.700;2023-02-05T08:14:30;6.30;99.90
58582;DHT22;44361;51.476;5.700;2023-02-05T08:16:57;6.30;99.90
58582;DHT22;44361;51.476;5.700;2023-02-05T08:19:25;6.30;99.90
58582;DHT22;44361;51.476;5.700;2023-02-05T08:21:51;6.30;99.90
58582;DHT22;44361;51.476;5.700;2023-02-05T08:24:16;6.30;99.90
58582;DHT22;44361;51.476;5.700;2023-02-05T08:26:42;6.30;99.90
58582;DHT22;44361;51.476;5.700;2023-02-05T08:29:09;6.40;99.90
58582;DHT22;44361;51.476;5.700;2023-02-05T08:31:36;6.40;99.90
58582;DHT22;44361;51.476;5.700;2023-02-05T08:34:02;6.40;99.90
58582;DHT22;44361;51.476;5.700;2023-02-05T08:36:28;6.30;99.90
58582;DHT22;44361;51.476;5.700;2023-02-05T08:38:53;6.30;99.90
58582;DHT22;44361;51.476;5.700;2023-02-05T08:41:19;6.30;99.90
58582;DHT22;44361;51.476;5.700;2023-02-05T08:43:47;6.30;99.90
58582;DHT22;44361;51.476;5.700;2023-02-05T08:46:17;6.30;99.90
58582;DHT22;44361;51.476;5.700;2023-02-05T08:48:43;6.30;99.90
58582;DHT22;44361;51.476;5.700;2023-02-05T08:51:10;6.40;99.90
58582;DHT22;44361;51.476;5.700;2023-02-05T08:53:36;6.40;99.90
58582;DHT22;44361;51.476;5.700;2023-02-05T08:56:02;6.40;99.90
58582;DHT22;44361;51.476;5.700;2023-02-05T08:58:30;6.40;99.90
58582;DHT22;44361;51.476;5.700;2023-02-05T09:01:03;6.50;99.90
58582;DHT22;44361;51.476;5.700;2023-02-05T09:03:29;6.60;99.90
58582;DHT22;44361;51.476;5.700;2023-02-05T09:05:56;6.60;99.90
58582;DHT22;44361;51.476;5.700;2023-02-05T09:08:22;6.60;99.90
58582;DHT22;44361;51.476;5.700;2023-02-05T09:10:48;6.70;99.90
58582;DHT22;44361;51.476;5.700;2023-02-05T09:13:13;6.80;99.90
58582;DHT22;44361;51.476;5.700;2023-02-05T09:15:43;6.90;99.90
58582;DHT22;44361;51.476;5.700;2023-02-05T09:18:09;6.90;99.90
58582;DHT22;44361;51.476;5.700;2023-02-05T09:20:48;7.00;99.90
58582;DHT22;44361;51.476;5.700;2023-02-05T09:23:16;7.00;99.90
58582;DHT22;44361;51.476;5.700;2023-02-05T09:25:42;7.00;99.90
58582;DHT22;44361;51.476;5.700;2023-02-05T09:28:10;7.00;99.90
58582;DHT22;44361;51.476;5.700;2023-02-05T09:30:40;7.00;99.90
58582;DHT22;44361;51.476;5.700;2023-02-05T09:33:06;7.00;99.90
58582;DHT22;44361;51.476;5.700;2023-02-05T09:35:33;7.10;99.90
58582;DHT22;44361;51.476;5.700;2023-02-05T09:37:59;7.10;99.90
58582;DHT22;44361;51.476;5.700;2023-02-05T09:40:40;7.10;99.90
58582;DHT22;44361;51.476;5.700;2023-02-05T09:49:18;7.00;99.90
58582;DHT22;44361;51.476;5.700;2023-02-05T09:51:49;7.10;99.90
58582;DHT22;44361;51.476;5.700;2023-02-05T09:54:23;7.10;99.90
58582;DHT22;44361;51.476;5.700;2023-02-05T09:56:53;7.10;99.90
58582;DHT22;44361;51.476;5.700;2023-02-05T09:59:22;7.10;99.90
58582;DHT22;44361;51.476;5.700;2023-02-05T10:01:50;7.20;99.90
58582;DHT22;44361;51.476;5.700;2023-02-05T10:04:15;7.20;99.90
58582;DHT22;44361;51.476;5.700;2023-02-05T10:09:40;7.30;99.90
58582;DHT22;44361;51.476;5.700;2023-02-05T10:12:36;7.30;99.90
58582;DHT22;44361;51.476;5.700;2023-02-05T10:18:40;7.40;99.90
58582;DHT22;44361;51.476;5.700;2023-02-05T10:26:45;7.60;99.90
58582;DHT22;44361;51.476;5.700;2023-02-05T10:29:24;7.60;99.90
58582;DHT22;44361;51.476;5.700;2023-02-05T10:34:57;7.60;99.90
58582;DHT22;44361;51.476;5.700;2023-02-05T10:37:40;7.60;99.90
58582;DHT22;44361;51.476;5.700;2023-02-05T10:40:16;7.60;99.90
58582;DHT22;44361;51.476;5.700;2023-02-05T10:45:27;7.80;99.90
58582;DHT22;44361;51.476;5.700;2023-02-05T10:48:06;7.80;99.90
58582;DHT22;44361;51.476;5.700;2023-02-05T10:53:20;7.90;99.90
58582;DHT22;44361;51.476;5.700;2023-02-05T10:55:47;7.90;99.90
58582;DHT22;44361;51.476;5.700;2023-02-05T11:01:01;7.90;99.90
58582;DHT22;44361;51.476;5.700;2023-02-05T11:03:28;7.80;99.90
58582;DHT22;44361;51.476;5.700;2023-02-05T11:05:53;7.80;99.90
58582;DHT22;44361;51.476;5.700;2023-02-05T11:08:40;7.80;99.90
58582;DHT22;44361;51.476;5.700;2023-02-05T11:11:10;7.80;99.90
58582;DHT22;44361;51.476;5.700;2023-02-05T11:13:49;7.90;99.90
58582;DHT22;44361;51.476;5.700;2023-02-05T11:16:15;7.90;99.90
58582;DHT22;44361;51.476;5.700;2023-02-05T11:18:44;8.00;99.90
58582;DHT22;44361;51.476;5.700;2023-02-05T11:21:11;8.10;99.90
58582;DHT22;44361;51.476;5.700;2023-02-05T11:23:38;8.10;99.90
58582;DHT22;44361;51.476;5.700;2023-02-05T11:26:16;8.20;99.90
58582;DHT22;44361;51.476;5.700;2023-02-05T11:28:42;8.30;99.90
58582;DHT22;44361;51.476;5.700;2023-02-05T11:31:30;8.30;99.90
58582;DHT22;44361;51.476;5.700;2023-02-05T11:34:11;8.30;99.90
58582;DHT22;44361;51.476;5.700;2023-02-05T11:36:47;8.20;99.90
58582;DHT22;44361;51.476;5.700;2023-02-05T11:39:33;8.20;99.90
58582;DHT22;44361;51.476;5.700;2023-02-05T11:42:17;8.10;99.90
58582;DHT22;44361;51.476;5.700;2023-02-05T11:44:50;8.00;99.90
58582;DHT22;44361;51.476;5.700;2023-02-05T11:49:49;8.00;99.90
58582;DHT22;44361;51.476;5.700;2023-02-05T11:52:22;8.10;99.90
58582;DHT22;44361;51.476;5.700;2023-02-05T11:54:49;8.10;99.90
58582;DHT22;44361;51.476;5.700;2023-02-05T12:00:20;8.20;99.90
58582;DHT22;44361;51.476;5.700;2023-02-05T12:02:46;8.20;99.90
58582;DHT22;44361;51.476;5.700;2023-02-05T12:05:20;8.10;99.90
58582;DHT22;44361;51.476;5.700;2023-02-05T12:07:56;8.10;99.90
58582;DHT22;44361;51.476;5.700;2023-02-05T12:13:31;8.20;99.90
58582;DHT22;44361;51.476;5.700;2023-02-05T12:19:19;8.20;99.90
58582;DHT22;44361;51.476;5.700;2023-02-05T12:22:23;8.20;99.90
58582;DHT22;44361;51.476;5.700;2023-02-05T12:30:52;8.30;99.90
58582;DHT22;44361;51.476;5.700;2023-02-05T12:47:16;8.60;99.90
58582;DHT22;44361;51.476;5.700;2023-02-05T12:53:09;8.60;99.90
58582;DHT22;44361;51.476;5.700;2023-02-05T12:58:42;8.60;99.90
58582;DHT22;44361;51.476;5.700;2023-02-05T13:01:16;8.60;99.90
58582;DHT22;44361;51.476;5.700;2023-02-05T13:03:56;8.50;99.90
58582;DHT22;44361;51.476;5.700;2023-02-05T13:09:00;8.50;99.90
58582;DHT22;44361;51.476;5.700;2023-02-05T13:11:34;8.70;99.90
58582;DHT22;44361;51.476;5.700;2023-02-05T13:14:22;8.80;99.90
58582;DHT22;44361;51.476;5.700;2023-02-05T13:16:54;8.60;99.90
58582;DHT22;44361;51.476;5.700;2023-02-05T13:19:28;8.40;99.90
58582;DHT22;44361;51.476;5.700;2023-02-05T13:21:59;8.40;99.90
58582;DHT22;44361;51.476;5.700;2023-02-05T13:24:50;8.60;99.90
58582;DHT22;44361;51.476;5.700;2023-02-05T13:27:44;8.70;99.90
58582;DHT22;44361;51.476;5.700;2023-02-05T13:30:46;9.00;99.60
58582;DHT22;44361;51.476;5.700;2023-02-05T13:33:14;9.00;98.50
58582;DHT22;44361;51.476;5.700;2023-02-05T13:36:08;8.80;98.50
58582;DHT22;44361;51.476;5.700;2023-02-05T13:58:17;8.60;98.70
58582;DHT22;44361;51.476;5.700;2023-02-05T14:01:02;8.50;99.30
58582;DHT22;44361;51.476;5.700;2023-02-05T14:06:15;8.30;99.90
58582;DHT22;44361;51.476;5.700;2023-02-05T14:08:41;8.20;99.90
58582;DHT22;44361;51.476;5.700;2023-02-05T14:11:08;8.10;99.90
58582;DHT22;44361;51.476;5.700;2023-02-05T14:13:34;8.20;99.90
58582;DHT22;44361;51.476;5.700;2023-02-05T14:16:31;8.30;99.90
58582;DHT22;44361;51.476;5.700;2023-02-05T14:23:57;8.30;98.40
58582;DHT22;44361;51.476;5.700;2023-02-05T14:29:45;8.40;98.40
58582;DHT22;44361;51.476;5.700;2023-02-05T14:32:12;8.50;98.20
58582;DHT22;44361;51.476;5.700;2023-02-05T14:35:03;8.60;96.20
58582;DHT22;44361;51.476;5.700;2023-02-05T14:37:35;8.70;95.90
58582;DHT22;44361;51.476;5.700;2023-02-05T14:40:30;8.70;96.00
58582;DHT22;44361;51.476;5.700;2023-02-05T14:43:11;8.60;95.70
58582;DHT22;44361;51.476;5.700;2023-02-05T14:45:50;8.60;95.90
58582;DHT22;44361;51.476;5.700;2023-02-05T14:48:25;8.50;96.30
58582;DHT22;44361;51.476;5.700;2023-02-05T14:51:05;8.50;97.00
58582;DHT22;44361;51.476;5.700;2023-02-05T14:53:31;8.50;97.30
58582;DHT22;44361;51.476;5.700;2023-02-05T14:55:59;8.30;97.30
58582;DHT22;44361;51.476;5.700;2023-02-05T14:58:30;8.30;98.10
58582;DHT22;44361;51.476;5.700;2023-02-05T15:03:56;8.10;99.00
58582;DHT22;44361;51.476;5.700;2023-02-05T15:06:24;8.10;98.80
58582;DHT22;44361;51.476;5.700;2023-02-05T15:09:09;8.10;98.80
58582;DHT22;44361;51.476;5.700;2023-02-05T15:19:50;8.30;98.30
58582;DHT22;44361;51.476;5.700;2023-02-05T15:22:36;8.30;97.70
58582;DHT22;44361;51.476;5.700;2023-02-05T15:25:08;8.40;97.80
58582;DHT22;44361;51.476;5.700;2023-02-05T15:27:45;8.50;98.00
58582;DHT22;44361;51.476;5.700;2023-02-05T15:30:19;8.60;97.60
58582;DHT22;44361;51.476;5.700;2023-02-05T15:32:50;8.60;97.40
58582;DHT22;44361;51.476;5.700;2023-02-05T15:35:20;8.50;97.50
58582;DHT22;44361;51.476;5.700;2023-02-05T15:37:50;8.50;97.30
58582;DHT22;44361;51.476;5.700;2023-02-05T15:40:33;8.40;97.10
58582;DHT22;44361;51.476;5.700;2023-02-05T15:43:21;8.40;96.90
58582;DHT22;44361;51.476;5.700;2023-02-05T15:45:48;8.30;96.80
58582;DHT22;44361;51.476;5.700;2023-02-05T15:48:21;8.30;96.20
58582;DHT22;44361;51.476;5.700;2023-02-05T15:50:51;8.30;96.30
58582;DHT22;44361;51.476;5.700;2023-02-05T15:55:56;8.20;96.30
58582;DHT22;44361;51.476;5.700;2023-02-05T15:58:24;8.20;96.60
58582;DHT22;44361;51.476;5.700;2023-02-05T16:00:50;8.20;96.40
58582;DHT22;44361;51.476;5.700;2023-02-05T16:03:44;8.00;96.50
58582;DHT22;44361;51.476;5.700;2023-02-05T16:06:18;8.00;96.70
58582;DHT22;44361;51.476;5.700;2023-02-05T16:08:48;7.90;97.10
58582;DHT22;44361;51.476;5.700;2023-02-05T16:11:27;7.80;97.40
58582;DHT22;44361;51.476;5.700;2023-02-05T16:14:11;7.70;98.10
58582;DHT22;44361;51.476;5.700;2023-02-05T16:19:34;7.70;98.30
58582;DHT22;44361;51.476;5.700;2023-02-05T16:25:42;7.60;98.80
58582;DHT22;44361;51.476;5.700;2023-02-05T16:28:22;7.50;98.90
58582;DHT22;44361;51.476;5.700;2023-02-05T16:30:51;7.50;98.70
58582;DHT22;44361;51.476;5.700;2023-02-05T16:33:39;7.50;98.90
58582;DHT22;44361;51.476;5.700;2023-02-05T16:36:15;7.40;98.90
58582;DHT22;44361;51.476;5.700;2023-02-05T16:38:41;7.30;99.10
58582;DHT22;44361;51.476;5.700;2023-02-05T16:41:41;7.20;99.10
58582;DHT22;44361;51.476;5.700;2023-02-05T16:44:25;7.20;99.10
58582;DHT22;44361;51.476;5.700;2023-02-05T16:49:30;7.10;99.40
58582;DHT22;44361;51.476;5.700;2023-02-05T16:51:55;7.00;99.70
58582;DHT22;44361;51.476;5.700;2023-02-05T16:54:33;6.90;99.80
58582;DHT22;44361;51.476;5.700;2023-02-05T16:57:10;6.80;99.90
58582;DHT22;44361;51.476;5.700;2023-02-05T16:59:49;6.80;99.90
58582;DHT22;44361;51.476;5.700;2023-02-05T17:02:25;6.80;99.90
58582;DHT22;44361;51.476;5.700;2023-02-05T17:04:53;6.80;99.90
58582;DHT22;44361;51.476;5.700;2023-02-05T17:07:20;6.70;99.90
58582;DHT22;44361;51.476;5.700;2023-02-05T17:09:46;6.60;99.90
58582;DHT22;44361;51.476;5.700;2023-02-05T17:14:59;6.40;99.90
58582;DHT22;44361;51.476;5.700;2023-02-05T17:17:28;6.40;99.90
58582;DHT22;44361;51.476;5.700;2023-02-05T17:22:27;6.30;99.90
58582;DHT22;44361;51.476;5.700;2023-02-05T17:24:52;6.20;99.90
58582;DHT22;44361;51.476;5.700;2023-02-05T17:27:35;6.40;99.90
58582;DHT22;44361;51.476;5.700;2023-02-05T17:30:09;6.40;99.90
58582;DHT22;44361;51.476;5.700;2023-02-05T17:32:38;6.40;99.90
58582;DHT22;44361;51.476;5.700;2023-02-05T17:35:12;6.40;99.90
58582;DHT22;44361;51.476;5.700;2023-02-05T17:37:37;6.30;99.90
58582;DHT22;44361;51.476;5.700;2023-02-05T17:40:03;6.30;99.90
58582;DHT22;44361;51.476;5.700;2023-02-05T17:42:29;6.30;99.90
58582;DHT22;44361;51.476;5.700;2023-02-05T17:44:55;6.30;99.90
58582;DHT22;44361;51.476;5.700;2023-02-05T17:47:21;6.20;99.90
58582;DHT22;44361;51.476;5.700;2023-02-05T17:49:47;6.20;99.90
58582;DHT22;44361;51.476;5.700;2023-02-05T17:52:13;6.10;99.90
58582;DHT22;44361;51.476;5.700;2023-02-05T17:54:40;6.00;99.90
58582;DHT22;44361;51.476;5.700;2023-02-05T17:57:14;6.00;99.90
58582;DHT22;44361;51.476;5.700;2023-02-05T17:59:40;5.90;99.90
58582;DHT22;44361;51.476;5.700;2023-02-05T18:02:09;5.80;99.90
58582;DHT22;44361;51.476;5.700;2023-02-05T18:04:35;5.80;99.90
58582;DHT22;44361;51.476;5.700;2023-02-05T18:07:00;5.80;99.90
58582;DHT22;44361;51.476;5.700;2023-02-05T18:09:26;5.80;99.90
58582;DHT22;44361;51.476;5.700;2023-02-05T18:11:51;5.70;99.90
58582;DHT22;44361;51.476;5.700;2023-02-05T18:14:17;5.70;99.90
58582;DHT22;44361;51.476;5.700;2023-02-05T18:16:43;5.70;99.90
58582;DHT22;44361;51.476;5.700;2023-02-05T18:19:09;5.60;99.90
58582;DHT22;44361;51.476;5.700;2023-02-05T18:21:34;5.60;99.90
58582;DHT22;44361;51.476;5.700;2023-02-05T18:24:01;5.60;99.90
58582;DHT22;44361;51.476;5.700;2023-02-05T18:26:26;5.50;99.90
58582;DHT22;44361;51.476;5.700;2023-02-05T18:28:52;5.50;99.90
58582;DHT22;44361;51.476;5.700;2023-02-05T18:31:18;5.50;99.90
58582;DHT22;44361;51.476;5.700;2023-02-05T18:33:43;5.40;99.90